PWSweather.com
Personal Weather Stations
Station Observations
ABQWX
Albuquerque, NM 87110

Albuquerque, NM 87110

Lat: 35.1305, Lon: -106.58571

Elevation: 5210

Station Type: LaCrosse

http://www.albuquerqueweather.info/

High Low Average
Temperature 80.2°F26.8°F 45.0°F7.2°F 61.3°F16.3°F
Dew Point 39.7°F4.3°F 33.5°F0.8°F 36.4°F2.4°F
Winds 2.6 mph SSW4.2 mph SSW Calm Calm 1.3 mph 2.1 mph
Wind Gusts 5.1 mph8.2 mph -- 2.3 mph3.7 mph
Humidity 66% 23% 42%
Pressure 30.27 in1025.10 in 30.15 in1021.00 in -
Precipitation 0.00 in0.00 in - -
Hour Temp Dew Point Humidity Winds Wind Gusts Pressure Precip Precip Rate Daily Precip Total
12:00 AM 54.9°F12.7°C 38.0°F3.3°C 53% 1.2 mph E1.9 kmh E 2.5 mph4.0 kmh 30.20 in1022.7 mb 0.00 in0.0 mm 0.00 in/hr0.0 mm/hr 0.00 in0.0 mm
01:00 AM 53.1°F11.7°C 36.8°F2.7°C 54% 1.0 mph NE1.6 kmh NE 1.3 mph2.1 kmh 30.21 in1023.0 mb 0.00 in0.0 mm 0.00 in/hr0.0 mm/hr 0.00 in0.0 mm
02:00 AM 53.2°F11.8°C 36.5°F2.5°C 53% 0.8 mph NNE1.3 kmh NNE 1.6 mph2.6 kmh 30.20 in1022.7 mb 0.00 in0.0 mm 0.00 in/hr0.0 mm/hr 0.00 in0.0 mm
03:00 AM 52.0°F11.1°C 35.4°F1.9°C 53% Calm Calm -- 30.21 in1023.0 mb 0.00 in0.0 mm 0.00 in/hr0.0 mm/hr 0.00 in0.0 mm
04:00 AM 49.1°F9.5°C 34.9°F1.6°C 58% 0.6 mph ESE1.0 kmh ESE 1.3 mph2.1 kmh 30.20 in1022.7 mb 0.00 in0.0 mm 0.00 in/hr0.0 mm/hr 0.00 in0.0 mm
05:00 AM 47.8°F8.8°C 34.6°F1.4°C 60% Calm Calm -- 30.21 in1023.0 mb 0.00 in0.0 mm 0.00 in/hr0.0 mm/hr 0.00 in0.0 mm
06:00 AM 46.2°F7.9°C 33.5°F0.8°C 61% 0.3 mph SSE0.5 kmh SSE 1.1 mph1.8 kmh 30.22 in1023.4 mb 0.00 in0.0 mm 0.00 in/hr0.0 mm/hr 0.00 in0.0 mm
07:00 AM 45.0°F7.2°C 33.9°F1.1°C 65% 0.9 mph ENE1.4 kmh ENE 1.6 mph2.6 kmh 30.23 in1023.7 mb 0.00 in0.0 mm 0.00 in/hr0.0 mm/hr 0.00 in0.0 mm
08:00 AM 45.7°F7.6°C 35.0°F1.7°C 66% 0.9 mph N1.4 kmh N 1.3 mph2.1 kmh 30.23 in1023.7 mb 0.00 in0.0 mm 0.00 in/hr0.0 mm/hr 0.00 in0.0 mm
09:00 AM 50.0°F10.0°C 34.5°F1.4°C 55% 2.2 mph NW3.5 kmh NW 3.8 mph6.1 kmh 30.26 in1024.7 mb 0.00 in0.0 mm 0.00 in/hr0.0 mm/hr 0.00 in0.0 mm
10:00 AM 57.6°F14.2°C 34.0°F1.1°C 41% 1.4 mph N2.3 kmh N 2.9 mph4.7 kmh 30.27 in1025.1 mb 0.00 in0.0 mm 0.00 in/hr0.0 mm/hr 0.00 in0.0 mm
11:00 AM 63.7°F17.6°C 34.8°F1.6°C 34% 2.2 mph WNW3.5 kmh WNW 3.6 mph5.8 kmh 30.26 in1024.7 mb 0.00 in0.0 mm 0.00 in/hr0.0 mm/hr 0.00 in0.0 mm
12:00 PM 67.8°F19.9°C 37.6°F3.1°C 33% 1.7 mph NNW2.7 kmh NNW 3.6 mph5.8 kmh 30.25 in1024.4 mb 0.00 in0.0 mm 0.00 in/hr0.0 mm/hr 0.00 in0.0 mm
01:00 PM 73.9°F23.3°C 39.7°F4.3°C 29% 2.1 mph SSW3.4 kmh SSW 3.4 mph5.5 kmh 30.22 in1023.4 mb 0.00 in0.0 mm 0.00 in/hr0.0 mm/hr 0.00 in0.0 mm
02:00 PM 77.5°F25.3°C 37.9°F3.3°C 24% 1.9 mph S3.1 kmh S 3.4 mph5.5 kmh 30.19 in1022.4 mb 0.00 in0.0 mm 0.00 in/hr0.0 mm/hr 0.00 in0.0 mm
03:00 PM 79.5°F26.4°C 39.6°F4.2°C 24% 2.6 mph SSW4.2 kmh SSW 5.1 mph8.2 kmh 30.17 in1021.7 mb 0.00 in0.0 mm 0.00 in/hr0.0 mm/hr 0.00 in0.0 mm
04:00 PM 80.2°F26.8°C 39.1°F3.9°C 23% 2.3 mph SSE3.7 kmh SSE 4.9 mph7.9 kmh 30.16 in1021.3 mb 0.00 in0.0 mm 0.00 in/hr0.0 mm/hr 0.00 in0.0 mm
05:00 PM 79.2°F26.2°C 38.2°F3.4°C 23% 2.3 mph S3.7 kmh S 4.5 mph7.2 kmh 30.16 in1021.3 mb 0.00 in0.0 mm 0.00 in/hr0.0 mm/hr 0.00 in0.0 mm
06:00 PM 77.0°F25.0°C 37.4°F3.0°C 24% 0.4 mph SE0.6 kmh SE 1.3 mph2.1 kmh 30.15 in1021.0 mb 0.00 in0.0 mm 0.00 in/hr0.0 mm/hr 0.00 in0.0 mm
07:00 PM 71.6°F22.0°C 37.6°F3.1°C 29% 0.1 mph E0.2 kmh E 0.2 mph0.3 kmh 30.16 in1021.3 mb 0.00 in0.0 mm 0.00 in/hr0.0 mm/hr 0.00 in0.0 mm
08:00 PM 66.4°F19.1°C 37.1°F2.8°C 34% 1.6 mph E2.6 kmh E 2.2 mph3.5 kmh 30.17 in1021.7 mb 0.00 in0.0 mm 0.00 in/hr0.0 mm/hr 0.00 in0.0 mm
09:00 PM 62.6°F17.0°C 36.6°F2.6°C 38% 0.7 mph E1.1 kmh E 1.3 mph2.1 kmh 30.19 in1022.4 mb 0.00 in0.0 mm 0.00 in/hr0.0 mm/hr 0.00 in0.0 mm
10:00 PM 59.5°F15.3°C 35.8°F2.1°C 41% 1.9 mph ESE3.1 kmh ESE 2.7 mph4.3 kmh 30.20 in1022.7 mb 0.00 in0.0 mm 0.00 in/hr0.0 mm/hr 0.00 in0.0 mm
11:00 PM 57.6°F14.2°C 35.8°F2.1°C 44% 1.0 mph E1.6 kmh E 1.3 mph2.1 kmh 30.21 in1023.0 mb 0.00 in0.0 mm 0.00 in/hr0.0 mm/hr 0.00 in0.0 mm